createdAt,value
2022-11-25T00:01:09.789Z,101048.47
2022-11-25T00:03:36.701Z,101047.94
2022-11-25T00:06:10.231Z,101054.28
2022-11-25T00:08:37.428Z,101049.56
2022-11-25T00:11:05.149Z,101056.47
2022-11-25T00:13:32.307Z,101043.91
2022-11-25T00:16:11.663Z,101029.91
2022-11-25T00:18:38.802Z,101026.81
2022-11-25T00:21:08.266Z,101020.06
2022-11-25T00:23:35.879Z,101022.44
2022-11-25T00:26:16.535Z,101022.28
2022-11-25T00:28:45.953Z,101027.00
2022-11-25T00:31:27.222Z,101032.81
2022-11-25T00:33:54.001Z,101035.00
2022-11-25T00:36:21.613Z,101037.38
2022-11-25T00:38:52.521Z,101032.97
2022-11-25T00:41:37.299Z,101022.63
2022-11-25T00:44:22.664Z,101027.72
2022-11-25T00:46:49.175Z,101029.56
2022-11-25T00:49:15.682Z,101036.44
2022-11-25T00:51:42.105Z,101042.09
2022-11-25T00:54:08.523Z,101044.63
2022-11-25T00:56:35.000Z,101040.81
2022-11-25T00:59:01.464Z,101033.16
2022-11-25T01:01:27.991Z,101045.53
2022-11-25T01:03:54.525Z,101053.88
2022-11-25T01:06:22.051Z,101054.19
2022-11-25T01:08:48.906Z,101053.84
2022-11-25T01:11:18.381Z,101055.69
2022-11-25T01:13:45.160Z,101060.06
2022-11-25T01:16:17.194Z,101070.09
2022-11-25T01:18:44.049Z,101076.81
2022-11-25T01:21:13.210Z,101082.28
2022-11-25T01:23:40.701Z,101089.03
2022-11-25T01:26:11.304Z,101091.03
2022-11-25T01:28:37.739Z,101091.72
2022-11-25T01:31:12.904Z,101086.13
2022-11-25T01:33:43.496Z,101091.72
2022-11-25T01:36:19.378Z,101092.03
2022-11-25T01:38:49.681Z,101096.44
2022-11-25T01:41:16.176Z,101098.66
2022-11-25T01:43:42.656Z,101105.78
2022-11-25T01:46:10.696Z,101106.31
2022-11-25T01:48:49.321Z,101115.75
2022-11-25T01:51:43.926Z,101115.75
2022-11-25T01:54:14.031Z,101120.13
2022-11-25T01:56:47.008Z,101118.31
2022-11-25T01:59:13.989Z,101120.53
2022-11-25T02:01:40.510Z,101114.69
2022-11-25T02:04:10.977Z,101119.63
2022-11-25T02:07:00.831Z,101116.88
2022-11-25T02:09:27.733Z,101116.13
2022-11-25T02:11:54.602Z,101105.56
2022-11-25T02:14:23.085Z,101104.88
2022-11-25T02:16:49.659Z,101108.31
2022-11-25T02:19:43.073Z,101105.94
2022-11-25T02:22:15.481Z,101109.63
2022-11-25T02:24:46.139Z,101118.53
2022-11-25T02:27:12.995Z,101130.91
2022-11-25T02:29:40.201Z,101130.19
2022-11-25T02:32:06.784Z,101129.28
2022-11-25T02:34:33.402Z,101141.09
2022-11-25T02:37:00.660Z,101133.66
2022-11-25T02:39:28.078Z,101138.75
2022-11-25T02:41:58.619Z,101126.53
2022-11-25T02:44:25.039Z,101112.88
2022-11-25T02:46:51.469Z,101112.69
2022-11-25T02:49:17.931Z,101117.63
2022-11-25T02:51:45.317Z,101129.44
2022-11-25T02:54:13.546Z,101133.81
2022-11-25T02:56:40.542Z,101142.56
2022-11-25T02:59:07.853Z,101134.53
2022-11-25T03:01:35.361Z,101142.00
2022-11-25T03:04:02.286Z,101149.66
2022-11-25T03:06:29.768Z,101155.88
2022-11-25T03:08:57.005Z,101158.78
2022-11-25T03:11:46.724Z,101161.31
2022-11-25T03:14:13.353Z,101152.38
2022-11-25T03:16:39.893Z,101152.00
2022-11-25T03:19:06.731Z,101145.28
2022-11-25T03:21:33.179Z,101146.19
2022-11-25T03:24:00.079Z,101133.47
2022-11-25T03:26:26.703Z,101129.63
2022-11-25T03:28:53.230Z,101133.06
2022-11-25T03:31:19.787Z,101128.53
2022-11-25T03:33:46.331Z,101121.25
2022-11-25T03:36:12.765Z,101122.34
2022-11-25T03:38:39.178Z,101123.78
2022-11-25T03:41:06.800Z,101129.97
2022-11-25T03:43:33.246Z,101126.88
2022-11-25T03:45:59.701Z,101123.41
2022-11-25T03:48:26.174Z,101121.94
2022-11-25T03:50:52.644Z,101114.47
2022-11-25T03:53:19.147Z,101120.13
2022-11-25T03:55:47.979Z,101135.81
2022-11-25T03:58:14.435Z,101138.00
2022-11-25T04:00:40.880Z,101123.06
2022-11-25T04:03:07.318Z,101119.25
2022-11-25T04:05:33.763Z,101115.03
2022-11-25T04:08:00.238Z,101107.41
2022-11-25T04:10:26.784Z,101101.53
2022-11-25T04:12:54.098Z,101092.47
2022-11-25T04:15:20.561Z,101098.84
2022-11-25T04:17:47.113Z,101098.66
2022-11-25T04:20:14.860Z,101107.03
2022-11-25T04:22:41.657Z,101108.13
2022-11-25T04:25:09.265Z,101110.28
2022-11-25T04:27:35.742Z,101113.88
2022-11-25T04:30:02.171Z,101105.72
2022-11-25T04:32:28.675Z,101116.25
2022-11-25T04:34:55.173Z,101118.28
2022-11-25T04:37:21.766Z,101118.28
2022-11-25T04:39:48.429Z,101127.38
2022-11-25T04:42:32.667Z,101135.41
2022-11-25T04:45:21.420Z,101141.97
2022-11-25T04:47:46.537Z,101154.00
2022-11-25T04:50:16.260Z,101149.25
2022-11-25T04:52:42.657Z,101143.63
2022-11-25T04:55:09.688Z,101134.16
2022-11-25T04:57:36.337Z,101143.81
2022-11-25T05:00:04.012Z,101147.06
2022-11-25T05:02:30.536Z,101151.47
2022-11-25T05:04:57.600Z,101154.00
2022-11-25T05:07:26.010Z,101159.50
2022-11-25T05:09:52.549Z,101168.25
2022-11-25T05:12:23.058Z,101179.34
2022-11-25T05:14:49.944Z,101191.56
2022-11-25T05:17:19.672Z,101190.47
2022-11-25T05:19:46.141Z,101184.06
2022-11-25T05:22:24.653Z,101191.00
2022-11-25T05:24:51.589Z,101189.16
2022-11-25T05:27:18.400Z,101192.97
2022-11-25T05:29:44.996Z,101204.28
2022-11-25T05:32:12.167Z,101203.53
2022-11-25T05:34:39.042Z,101203.72
2022-11-25T05:37:06.347Z,101206.63
2022-11-25T05:39:32.947Z,101201.72
2022-11-25T05:41:59.489Z,101204.13
2022-11-25T05:44:26.287Z,101201.56
2022-11-25T05:46:53.139Z,101207.56
2022-11-25T05:49:19.940Z,101202.59
2022-11-25T05:51:46.719Z,101203.16
2022-11-25T05:54:13.792Z,101208.94
2022-11-25T05:56:40.736Z,101206.06
2022-11-25T05:59:07.434Z,101202.19
2022-11-25T06:01:34.238Z,101204.94
2022-11-25T06:04:01.332Z,101203.84
2022-11-25T06:06:28.075Z,101197.88
2022-11-25T06:08:54.570Z,101203.16
2022-11-25T06:11:21.213Z,101202.06
2022-11-25T06:13:47.656Z,101213.69
2022-11-25T06:16:20.168Z,101215.53
2022-11-25T06:18:46.732Z,101211.50
2022-11-25T06:21:13.628Z,101218.03
2022-11-25T06:23:40.672Z,101208.25
2022-11-25T06:26:15.718Z,101214.09
2022-11-25T06:28:42.444Z,101202.25
2022-11-25T06:31:15.848Z,101204.06
2022-11-25T06:33:42.406Z,101207.50
2022-11-25T06:36:16.890Z,101210.81
2022-11-25T06:38:52.335Z,101211.00
2022-11-25T06:41:19.882Z,101217.38
2022-11-25T06:43:46.404Z,101217.75
2022-11-25T06:46:19.680Z,101222.31
2022-11-25T06:48:49.575Z,101215.91
2022-11-25T06:51:16.832Z,101218.31
2022-11-25T06:53:44.047Z,101225.00
2022-11-25T06:56:16.244Z,101222.78
2022-11-25T06:58:43.706Z,101223.75
2022-11-25T07:01:22.955Z,101236.50
2022-11-25T07:03:52.173Z,101243.94
2022-11-25T07:06:20.374Z,101243.56
2022-11-25T07:08:47.874Z,101239.91
2022-11-25T07:11:20.619Z,101245.16
2022-11-25T07:13:48.070Z,101249.91
2022-11-25T07:16:15.240Z,101241.03
2022-11-25T07:18:42.669Z,101247.16
2022-11-25T07:21:14.899Z,101240.97
2022-11-25T07:23:42.993Z,101243.19
2022-11-25T07:26:12.323Z,101246.69
2022-11-25T07:28:39.566Z,101240.69
2022-11-25T07:31:31.146Z,101238.50
2022-11-25T07:34:04.480Z,101242.00
2022-11-25T07:36:33.133Z,101244.72
2022-11-25T07:39:02.701Z,101241.44
2022-11-25T07:41:29.349Z,101241.78
2022-11-25T07:43:58.417Z,101241.41
2022-11-25T07:46:34.040Z,101244.28
2022-11-25T07:49:03.327Z,101245.41
2022-11-25T07:51:38.209Z,101244.63
2022-11-25T07:54:07.663Z,101241.16
2022-11-25T07:56:36.497Z,101245.69
2022-11-25T07:59:03.092Z,101247.84
2022-11-25T08:01:29.927Z,101254.56
2022-11-25T08:03:56.822Z,101257.44
2022-11-25T08:06:26.600Z,101255.53
2022-11-25T08:08:55.446Z,101256.53
2022-11-25T08:11:28.013Z,101248.94
2022-11-25T08:13:55.271Z,101248.50
2022-11-25T08:16:24.073Z,101246.78
2022-11-25T08:18:50.800Z,101257.53
2022-11-25T08:21:18.292Z,101255.44
2022-11-25T08:23:47.486Z,101251.19
2022-11-25T08:26:17.201Z,101252.91
2022-11-25T08:28:43.946Z,101248.50
2022-11-25T08:31:14.773Z,101267.09
2022-11-25T08:33:41.879Z,101260.81
2022-11-25T08:36:08.822Z,101268.81
2022-11-25T08:38:35.969Z,101274.31
2022-11-25T08:41:02.894Z,101278.09
2022-11-25T08:43:29.805Z,101280.94
2022-11-25T08:45:57.094Z,101275.09
2022-11-25T08:48:24.139Z,101283.66
2022-11-25T08:50:53.796Z,101280.13
2022-11-25T08:53:21.865Z,101282.38
2022-11-25T08:55:49.454Z,101278.47
2022-11-25T08:58:15.982Z,101280.31
2022-11-25T09:00:43.965Z,101277.00
2022-11-25T09:03:10.979Z,101280.63
2022-11-25T09:05:42.815Z,101289.38
2022-11-25T09:08:10.732Z,101288.22
2022-11-25T09:10:39.147Z,101288.22
2022-11-25T09:13:06.065Z,101295.19
2022-11-25T09:15:32.970Z,101299.16
2022-11-25T09:18:01.706Z,101303.38
2022-11-25T09:20:28.540Z,101314.22
2022-11-25T09:22:55.488Z,101322.22
2022-11-25T09:25:22.888Z,101320.91
2022-11-25T09:27:49.370Z,101327.25
2022-11-25T09:30:16.306Z,101328.34
2022-11-25T09:32:43.357Z,101323.53
2022-11-25T09:35:10.606Z,101318.00
2022-11-25T09:37:37.202Z,101319.81
2022-11-25T09:40:04.689Z,101319.06
2022-11-25T09:43:07.455Z,101313.53
2022-11-25T09:45:57.277Z,101318.97
2022-11-25T09:48:29.615Z,101324.75
2022-11-25T09:51:14.197Z,101318.84
2022-11-25T09:53:43.628Z,101315.00
2022-11-25T09:56:34.749Z,101318.84
2022-11-25T09:59:14.474Z,101308.59
2022-11-25T10:02:12.510Z,101314.31
2022-11-25T10:04:54.665Z,101307.50
2022-11-25T10:07:33.109Z,101306.56
2022-11-25T10:10:03.461Z,101308.69
2022-11-25T10:12:36.126Z,101308.28
2022-11-25T10:15:12.097Z,101311.81
2022-11-25T10:17:45.526Z,101305.78
2022-11-25T10:20:19.620Z,101295.72
2022-11-25T10:22:51.927Z,101291.81
2022-11-25T10:25:25.189Z,101281.09
2022-11-25T10:28:04.666Z,101285.16
2022-11-25T10:30:40.704Z,101279.72
2022-11-25T10:33:20.891Z,101281.56
2022-11-25T10:36:08.116Z,101283.41
2022-11-25T10:38:59.885Z,101281.44
2022-11-25T10:41:30.236Z,101287.50
2022-11-25T10:43:57.126Z,101282.56
2022-11-25T10:47:14.246Z,101278.34
2022-11-25T10:50:08.822Z,101277.78
2022-11-25T10:52:44.313Z,101276.88
2022-11-25T10:55:14.811Z,101274.78
2022-11-25T10:57:42.197Z,101269.47
2022-11-25T11:00:25.871Z,101265.72
2022-11-25T11:02:53.665Z,101275.38
2022-11-25T11:05:29.784Z,101269.03
2022-11-25T11:08:35.309Z,101261.31
2022-11-25T11:11:18.726Z,101263.56
2022-11-25T11:13:46.220Z,101256.00
2022-11-25T11:16:45.444Z,101253.75
2022-11-25T11:19:29.881Z,101259.63
2022-11-25T11:22:15.582Z,101252.97
2022-11-25T11:24:42.548Z,101251.03
2022-11-25T11:27:21.383Z,101252.53
2022-11-25T11:29:47.864Z,101259.81
2022-11-25T11:32:25.243Z,101251.16
2022-11-25T11:35:14.162Z,101256.19
2022-11-25T11:37:45.901Z,101248.75
2022-11-25T11:40:35.477Z,101238.94
2022-11-25T11:43:49.461Z,101243.31
2022-11-25T11:46:18.703Z,101242.84
2022-11-25T11:48:53.481Z,101235.13
2022-11-25T11:51:31.738Z,101231.34
2022-11-25T11:54:30.522Z,101233.91
2022-11-25T11:57:02.225Z,101220.94
2022-11-25T11:59:37.752Z,101230.88
2022-11-25T12:02:31.048Z,101224.22
2022-11-25T12:05:06.375Z,101217.16
2022-11-25T12:07:38.544Z,101216.38
2022-11-25T12:10:13.694Z,101213.81
2022-11-25T12:12:48.936Z,101217.00
2022-11-25T12:15:33.446Z,101208.78
2022-11-25T12:18:09.923Z,101208.78
2022-11-25T12:20:40.142Z,101197.31
2022-11-25T12:23:18.588Z,101203.53
2022-11-25T12:25:47.694Z,101192.94
2022-11-25T12:28:29.946Z,101184.94
2022-11-25T12:31:31.828Z,101178.25
2022-11-25T12:34:08.070Z,101184.94
2022-11-25T12:36:40.451Z,101178.56
2022-11-25T12:39:23.656Z,101175.34
2022-11-25T12:42:01.130Z,101182.19
2022-11-25T12:44:48.360Z,101186.44
2022-11-25T12:47:14.845Z,101192.03
2022-11-25T12:49:48.197Z,101181.84
2022-11-25T12:52:22.075Z,101182.38
2022-11-25T12:55:07.293Z,101168.88
2022-11-25T12:58:08.642Z,101171.56
2022-11-25T13:01:03.434Z,101163.13
2022-11-25T13:04:14.697Z,101159.47
2022-11-25T13:06:59.406Z,101172.03
2022-11-25T13:09:47.836Z,101163.69
2022-11-25T13:12:48.660Z,101165.97
2022-11-25T13:15:25.137Z,101160.25
2022-11-25T13:17:57.635Z,101163.75
2022-11-25T13:20:26.998Z,101172.38
2022-11-25T13:23:07.626Z,101162.50
2022-11-25T13:25:35.424Z,101168.41
2022-11-25T13:28:04.926Z,101160.13
2022-11-25T13:30:34.129Z,101161.00
2022-11-25T13:33:09.665Z,101156.13
2022-11-25T13:35:39.503Z,101156.13
2022-11-25T13:38:29.038Z,101152.19
2022-11-25T13:41:22.087Z,101149.22
2022-11-25T13:44:03.570Z,101153.56
2022-11-25T13:46:47.535Z,101145.13
2022-11-25T13:49:51.812Z,101137.41
2022-11-25T13:52:18.170Z,101143.59
2022-11-25T13:54:53.727Z,101143.59
2022-11-25T13:57:38.106Z,101151.50
2022-11-25T14:00:33.197Z,101157.34
2022-11-25T14:03:18.470Z,101151.91
2022-11-25T14:06:28.190Z,101166.59
2022-11-25T14:09:03.628Z,101165.41
2022-11-25T14:11:47.107Z,101174.00
2022-11-25T14:14:32.361Z,101166.75
2022-11-25T14:17:31.172Z,101172.06
2022-11-25T14:20:10.676Z,101174.03
2022-11-25T14:23:20.960Z,101171.78
2022-11-25T14:25:57.649Z,101174.19
2022-11-25T14:28:41.967Z,101167.69
2022-11-25T14:31:16.287Z,101162.38
2022-11-25T14:33:56.891Z,101167.69
2022-11-25T14:36:41.789Z,101163.13
2022-11-25T14:39:46.801Z,101155.91
2022-11-25T14:42:21.179Z,101155.44
2022-11-25T14:44:50.865Z,101164.66
2022-11-25T14:47:25.265Z,101169.19
2022-11-25T14:52:47.082Z,101178.88
2022-11-25T14:55:24.693Z,101179.47
2022-11-25T14:57:52.176Z,101163.78
2022-11-25T15:00:18.908Z,101179.47
2022-11-25T15:02:53.813Z,101180.53
2022-11-25T15:05:23.071Z,101174.03
2022-11-25T15:08:04.231Z,101187.03
2022-11-25T15:10:51.508Z,101192.34
2022-11-25T15:13:44.799Z,101189.44
2022-11-25T15:16:15.743Z,101189.75
2022-11-25T15:18:55.992Z,101199.84
2022-11-25T15:21:29.123Z,101212.41
2022-11-25T15:23:56.093Z,101213.28
2022-11-25T15:26:24.844Z,101209.34
2022-11-25T15:28:58.964Z,101209.63
2022-11-25T15:31:34.350Z,101214.44
2022-11-25T15:34:04.683Z,101218.94
2022-11-25T15:36:31.523Z,101222.88
2022-11-25T15:39:18.949Z,101216.53
2022-11-25T15:41:48.410Z,101210.19
2022-11-25T15:44:28.658Z,101209.84
2022-11-25T15:47:02.698Z,101212.25
2022-11-25T15:49:30.047Z,101208.56
2022-11-25T15:52:06.989Z,101218.63
2022-11-25T15:54:40.255Z,101216.66
2022-11-25T15:57:15.700Z,101214.19
2022-11-25T16:00:23.078Z,101213.88
2022-11-25T16:02:52.636Z,101200.09
2022-11-25T16:05:35.139Z,101201.50
2022-11-25T16:08:18.049Z,101206.53
2022-11-25T16:10:44.424Z,101203.63
2022-11-25T16:13:23.358Z,101211.19
2022-11-25T16:15:58.653Z,101210.88
2022-11-25T16:18:51.542Z,101205.88
2022-11-25T16:21:22.244Z,101207.94
2022-11-25T16:23:52.500Z,101215.31
2022-11-25T16:26:27.756Z,101214.25
2022-11-25T16:28:56.614Z,101215.47
2022-11-25T16:31:24.128Z,101215.88
2022-11-25T16:34:01.568Z,101214.06
2022-11-25T16:36:27.981Z,101219.78
2022-11-25T16:38:54.508Z,101214.91
2022-11-25T16:41:24.546Z,101223.16
2022-11-25T16:43:51.688Z,101219.97
2022-11-25T16:46:19.879Z,101219.63
2022-11-25T16:48:47.243Z,101223.19
2022-11-25T16:51:19.615Z,101217.66
2022-11-25T16:53:47.081Z,101228.25
2022-11-25T16:56:34.967Z,101229.88
2022-11-25T16:59:02.880Z,101231.53
2022-11-25T17:01:30.876Z,101230.63
2022-11-25T17:03:57.648Z,101238.16
2022-11-25T17:06:25.934Z,101238.53
2022-11-25T17:08:52.798Z,101243.53
2022-11-25T17:11:32.377Z,101245.59
2022-11-25T17:14:02.737Z,101244.16
2022-11-25T17:16:30.112Z,101251.84
2022-11-25T17:18:58.522Z,101252.78
2022-11-25T17:21:27.839Z,101257.97
2022-11-25T17:23:59.599Z,101263.31
2022-11-25T17:26:37.586Z,101257.56
2022-11-25T17:29:12.137Z,101262.03
2022-11-25T17:31:38.955Z,101262.25
2022-11-25T17:34:05.970Z,101256.31
2022-11-25T17:36:32.370Z,101265.47
2022-11-25T17:38:58.849Z,101269.81
2022-11-25T17:41:36.737Z,101268.41
2022-11-25T17:44:06.144Z,101275.13
2022-11-25T17:46:32.624Z,101277.88
2022-11-25T17:49:00.360Z,101280.00
2022-11-25T17:51:26.776Z,101285.41
2022-11-25T17:53:53.338Z,101292.03
2022-11-25T17:56:30.268Z,101296.78
2022-11-25T17:59:02.275Z,101300.09
2022-11-25T18:01:28.800Z,101300.09
2022-11-25T18:03:56.020Z,101309.94
2022-11-25T18:06:23.287Z,101305.72
2022-11-25T18:08:49.794Z,101307.59
2022-11-25T18:11:19.493Z,101314.34
2022-11-25T18:13:47.533Z,101307.19
2022-11-25T18:16:18.043Z,101309.63
2022-11-25T18:18:44.505Z,101305.81
2022-11-25T18:21:11.840Z,101312.00
2022-11-25T18:23:38.300Z,101318.81
2022-11-25T18:26:05.071Z,101318.47
2022-11-25T18:28:32.448Z,101320.63
2022-11-25T18:31:03.150Z,101319.03
2022-11-25T18:33:30.067Z,101317.97
2022-11-25T18:35:56.508Z,101319.25
2022-11-25T18:38:23.218Z,101327.97
2022-11-25T18:40:53.520Z,101328.72
2022-11-25T18:43:24.601Z,101325.13
2022-11-25T18:45:52.518Z,101318.16
2022-11-25T18:48:24.030Z,101323.44
2022-11-25T18:50:52.248Z,101316.28
2022-11-25T18:53:19.007Z,101322.88
2022-11-25T18:55:46.813Z,101328.72
2022-11-25T18:58:19.216Z,101321.47
2022-11-25T19:00:48.578Z,101324.03
2022-11-25T19:03:24.308Z,101321.31
2022-11-25T19:05:52.034Z,101315.06
2022-11-25T19:08:18.687Z,101318.38
2022-11-25T19:10:47.085Z,101327.66
2022-11-25T19:13:32.931Z,101330.63
2022-11-25T19:16:08.010Z,101341.38
2022-11-25T19:18:35.256Z,101345.25
2022-11-25T19:21:01.720Z,101336.47
2022-11-25T19:23:28.818Z,101341.63
2022-11-25T19:26:00.963Z,101346.16
2022-11-25T19:28:29.312Z,101337.75
2022-11-25T19:31:00.290Z,101332.44
2022-11-25T19:33:30.674Z,101332.44
2022-11-25T19:35:58.378Z,101348.53
2022-11-25T19:38:26.016Z,101348.91
2022-11-25T19:40:53.642Z,101353.28
2022-11-25T19:43:20.467Z,101356.97
2022-11-25T19:45:47.052Z,101348.53
2022-11-25T19:48:19.525Z,101353.63
2022-11-25T19:50:48.560Z,101356.97
2022-11-25T19:53:21.097Z,101361.53
2022-11-25T19:55:48.634Z,101358.25
2022-11-25T19:58:15.654Z,101365.19
2022-11-25T20:00:43.987Z,101363.91
2022-11-25T20:03:23.500Z,101365.53
2022-11-25T20:05:53.182Z,101369.03
2022-11-25T20:08:26.376Z,101370.84
2022-11-25T20:10:53.521Z,101380.69
2022-11-25T20:13:20.767Z,101383.97
2022-11-25T20:15:47.428Z,101393.97
2022-11-25T20:18:20.399Z,101394.88
2022-11-25T20:20:49.967Z,101395.97
2022-11-25T20:23:43.700Z,101396.66
2022-11-25T20:26:24.565Z,101397.69
2022-11-25T20:28:51.002Z,101407.53
2022-11-25T20:31:17.530Z,101415.59
2022-11-25T20:33:44.010Z,101420.06
2022-11-25T20:36:15.500Z,101425.00
2022-11-25T20:38:44.319Z,101420.03
2022-11-25T20:41:11.171Z,101424.59
2022-11-25T20:43:41.393Z,101416.59
2022-11-25T20:46:24.117Z,101419.53
2022-11-25T20:48:56.607Z,101425.03
2022-11-25T20:51:24.462Z,101435.22
2022-11-25T20:54:01.255Z,101431.97
2022-11-25T20:56:28.456Z,101440.38
2022-11-25T20:58:55.532Z,101436.38
2022-11-25T21:01:22.382Z,101436.38
2022-11-25T21:03:50.301Z,101439.69
2022-11-25T21:06:31.171Z,101444.81
2022-11-25T21:09:01.167Z,101449.56
2022-11-25T21:11:28.182Z,101444.13
2022-11-25T21:13:54.691Z,101452.69
2022-11-25T21:16:21.220Z,101450.31
2022-11-25T21:18:47.740Z,101456.13
2022-11-25T21:21:25.287Z,101455.97
2022-11-25T21:23:52.061Z,101457.22
2022-11-25T21:26:20.971Z,101455.78
2022-11-25T21:28:49.768Z,101459.03
2022-11-25T21:31:19.121Z,101467.44
2022-11-25T21:33:46.771Z,101481.28
2022-11-25T21:36:25.803Z,101479.22
2022-11-25T21:39:01.650Z,101487.06
2022-11-25T21:41:28.115Z,101490.72
2022-11-25T21:43:54.583Z,101484.88
2022-11-25T21:46:26.504Z,101501.69
2022-11-25T21:48:53.149Z,101496.19
2022-11-25T21:51:24.007Z,101500.19
2022-11-25T21:53:51.514Z,101507.50
2022-11-25T21:56:30.909Z,101500.63
2022-11-25T21:58:59.678Z,101496.41
2022-11-25T22:01:26.296Z,101491.84
2022-11-25T22:03:52.829Z,101485.66
2022-11-25T22:06:24.899Z,101478.75
2022-11-25T22:08:51.528Z,101481.53
2022-11-25T22:11:21.129Z,101477.69
2022-11-25T22:13:48.576Z,101483.31
2022-11-25T22:16:17.597Z,101479.84
2022-11-25T22:18:45.015Z,101477.31
2022-11-25T22:21:13.770Z,101482.00
2022-11-25T22:23:41.441Z,101475.44
2022-11-25T22:26:16.240Z,101480.91
2022-11-25T22:28:45.058Z,101478.31
2022-11-25T22:31:12.673Z,101489.97
2022-11-25T22:33:39.182Z,101494.16
2022-11-25T22:36:06.001Z,101498.34
2022-11-25T22:38:32.527Z,101495.41
2022-11-25T22:41:03.764Z,101498.13
2022-11-25T22:43:36.599Z,101502.28
2022-11-25T22:46:04.691Z,101519.75
2022-11-25T22:48:35.191Z,101513.22
2022-11-25T22:51:02.373Z,101516.56
2022-11-25T22:53:29.395Z,101508.56
2022-11-25T22:55:58.084Z,101512.78
2022-11-25T22:58:28.157Z,101510.03
2022-11-25T23:00:56.125Z,101507.13
2022-11-25T23:03:26.035Z,101496.19
2022-11-25T23:05:54.113Z,101506.06
2022-11-25T23:08:23.212Z,101495.66
2022-11-25T23:10:51.499Z,101496.19
2022-11-25T23:13:20.493Z,101491.09
2022-11-25T23:16:01.761Z,101497.81
2022-11-25T23:18:38.973Z,101497.47
2022-11-25T23:21:07.254Z,101502.56
2022-11-25T23:23:33.816Z,101500.19
2022-11-25T23:26:00.273Z,101506.38
2022-11-25T23:28:26.803Z,101502.41
2022-11-25T23:30:58.255Z,101503.72
2022-11-25T23:33:51.424Z,101503.75
2022-11-25T23:36:21.147Z,101500.28
2022-11-25T23:38:52.692Z,101506.47
2022-11-25T23:41:20.386Z,101504.06
2022-11-25T23:43:46.793Z,101506.81
2022-11-25T23:46:15.048Z,101499.16
2022-11-25T23:48:43.421Z,101514.47
2022-11-25T23:51:10.415Z,101515.56
2022-11-25T23:53:39.458Z,101518.81
2022-11-25T23:56:06.108Z,101517.00
2022-11-25T23:58:32.617Z,101518.59
